SVPL1: Red River at Shreveport Site 2

                                SHEF ID:       SVPL1     Red River at Shreveport Site 2
STATION TYPE:

PRECIP STAGE RIV-FLOW VOLTAGE
in ft cfs volt
Ccp-Rev Ccp-Rev Ccp-Rev Ccp-Rev
(America/Chicago)
07/07 00:00 0.00 16.58 27480 12.79
07/07 01:00 0.00 16.57 27420 12.77
07/07 02:00 0.00 16.46 26760 12.75
07/07 03:00 0.00 16.55 27300 12.73
07/07 04:00 0.00 16.49 26940 12.73
07/07 05:00 0.00 16.52 27120 12.73
07/07 06:00 0.00 16.41 26460 12.73
07/07 07:00 0.00 16.52 27120 12.72
07/07 08:00 0.00 16.56 27360 12.71
07/07 09:00 0.00 16.57 27420 12.72
07/07 10:00 0.00 16.48 26880 12.73
07/07 11:00 0.00 16.49 26940 12.73
07/07 12:00 0.00 16.45 26700 12.73
07/07 13:00 0.00 16.53 27180 13.55
07/07 14:00 0.00 16.45 26700 13.05
07/07 15:00 0.00 16.52 27120 13.05
07/07 16:00 0.00 16.51 27060 13.07
07/07 17:00 0.00 16.46 26760 13.08
07/07 18:00 0.00 16.40 26400 13.05
07/07 19:00 0.00 16.39 26340 12.91
07/07 20:00 0.00 16.34 26040 12.88
07/07 21:00 0.00 16.31 25860 12.84
07/07 22:00 0.00 16.27 25620 12.82
07/07 23:00 0.00 16.23 25380 12.77
Data processed at Wed 08Jul2026 15:26 GMT

NOTICE: If you are parsing this page

Please convert to using our Data API. Starting early 2026 we will be migrating to: https://water.usace.army.mil with modern pages rendered in JavaScript. When this migration completes you will no longer be able to scrape this page! CWMSDataAPI (CDA)

Timeseries IDs (TSIDs)

TSIDs used from left to right in the data table
SHRE.Precip-Inc.Total.1Hour.1Hour.Ccp-Rev
SHRE.Stage.Inst.1Hour.0.Ccp-Rev
SHRE.Flow.Inst.1Hour.0.Ccp-Rev
SHRE.Volt-Battery.Inst.1Hour.0.Ccp-Rev

                            

All information presented herein is the property of the government of the United States of America and may be revised or deleted at any time without prior notice. Dissemination of this information without the expressed written consent of the Public Affairs Office, Tulsa District U.S. Army Corps of Engineers is strictly prohibited. These data are gathered electronically and, as presented, have NOT undergone any form of quality control. These data are NOT guaranteed to be valid or correct.